Flight Track Log - Related Links

Times and Time Zones

All times are in EDT time to prevent confusion due to time zone crossing. See the GJS6221 flight status page for this flight to view local times or setup timezone preferences in your user account.

Time Position Orientation Groundspeed Altitude Reporting Facility
EDT Latitude Longitude Course Direction KTS MPH feet Rate Location/Type
Fri 02:33:04 PM 44.5372 -73.3194 254° West 202 232 7,400  Level Boston Center
Fri 02:34:04 PM 44.4661 -73.3389 191° South 194 223 9,900 2,200 Climbing Boston Center
Fri 02:35:04 PM 44.3911 -73.3611 192° South 260 299 11,800 1,650 Climbing Boston Center
Fri 02:36:04 PM 44.3011 -73.3856 191° South 325 374 13,200 1,300 Climbing Boston Center
Fri 02:37:00 PM 43.9025 -73.3657 196° South  Level FlightAware Approximate
Fri 02:37:04 PM 44.1989 -73.4131 191° South 370 426 14,400  Level Boston Center
Fri 02:38:04 PM 44.0881 -73.4458 192° South 394 453 16,600 1,800 Climbing Boston Center
Fri 02:39:04 PM 43.9794 -73.4758 191° South 399 459 18,000 1,400 Climbing Boston Center
Fri 02:40:04 PM 43.8542 -73.5111 191° South 413 475 19,400 1,500 Climbing Boston Center
Fri 02:41:04 PM 43.7392 -73.5406 190° South 422 486 21,000 1,300 Climbing Boston Center
Fri 02:42:04 PM 43.6347 -73.5675 191° South 427 491 22,000 500 Climbing Boston Center
Fri 02:43:04 PM 43.5136 -73.5994 191° South 432 497 22,000  Level Boston Center
Fri 02:44:04 PM 43.3925 -73.6314 191° South 438 504 22,000  Level Boston Center
Fri 02:45:04 PM 43.2733 -73.6633 191° South 438 504 22,000  Level Boston Center
Fri 02:46:04 PM 43.1519 -73.6981 192° South 443 510 22,000  Level Boston Center
Fri 02:47:04 PM 43.0161 -73.7350 191° South 449 517 22,000 -50 Level Boston Center
Fri 02:48:04 PM 42.8992 -73.7667 191° South 449 517 21,900  Descending Boston Center
Fri 02:49:04 PM 42.7800 -73.7978 191° South 443 510 22,000 -50 Climbing Boston Center
Fri 02:50:04 PM 42.6531 -73.7839 175° South 443 510 21,800 -550 Descending Boston Center
Fri 02:51:04 PM 42.5322 -73.7642 173° South 443 510 20,900 -850 Descending Boston Center
Fri 02:52:04 PM 42.4367 -73.7425 170° South 443 510 20,100 -900 Descending Boston Center
Fri 02:53:04 PM 42.3161 -73.7175 171° South 443 510 19,100 -550 Descending Boston Center
Fri 02:54:04 PM 42.1725 -73.6894 172° South 443 510 19,000 -50 Descending Boston Center
Fri 02:55:04 PM 42.0561 -73.6619 170° South 438 504 19,000  Level Boston Center
Fri 02:56:04 PM 41.9314 -73.6344 171° South 444 511 19,000 -150 Level Boston Center
Fri 02:57:04 PM 41.8147 -73.6239 176° South 444 511 18,700 -1,250 Descending Boston Center
Fri 02:58:04 PM 41.7081 -73.6664 197° South 415 478 16,500 -2,650 Descending Boston Center
Fri 02:59:04 PM 41.6014 -73.7061 196° South 402 463 13,400 -2,591 Descending Boston Center
Fri 03:00:16 PM 41.5072 -73.7403 195° South 383 441 10,800 -1,682 Descending Boston Center
Fri 03:01:16 PM 41.4439 -73.8053 218° Southwest 280 322 9,700 -900 Descending Boston Center
Fri 03:02:16 PM 41.5039 -73.8508 330° Northwest 146 168 9,000 -350 Descending Boston Center
Fri 03:03:16 PM 41.5661 -73.8689 348° North 205 236 9,000  Level Boston Center
Fri 03:04:16 PM 41.6367 -73.8900 347° North 241 277 9,000  Level Boston Center
Fri 03:05:16 PM 41.6800 -73.9300 325° Northwest 219 252 9,000  Level Boston Center
Fri 03:06:16 PM 41.6211 -73.9619 202° Southwest 119 137 9,000  Level Boston Center
Fri 03:07:08 PM 41.5500 -73.9333 163° South 284 327 9,000  Level New York TRACON
Fri 03:08:02 PM 41.4833 -73.9000 159° South 284 327 9,000  Level New York TRACON
Fri 03:09:02 PM 41.4167 -73.8667 159° South 282 325 9,000 -381 Level New York TRACON
Fri 03:10:08 PM 41.3500 -73.8000 143° Southeast 290 334 8,200 -500 Descending New York TRACON
Fri 03:11:02 PM 41.2833 -73.7500 151° Southeast 279 321 8,000 -579 Descending New York TRACON
Fri 03:12:02 PM 41.2167 -73.6833 143° Southeast 280 322 7,100 -1,200 Descending New York TRACON
Fri 03:13:02 PM 41.1500 -73.6500 159° South 279 321 5,600 -1,350 Descending New York TRACON
Fri 03:14:02 PM 41.0833 -73.6333 169° South 272 313 4,400 -800 Descending New York TRACON
Fri 03:15:02 PM 41.0000 -73.6167 171° South 271 312 4,000 -200 Descending New York TRACON
Fri 03:16:02 PM 40.9333 -73.6333 191° South 264 304 4,000  Level New York TRACON
Fri 03:17:02 PM 40.8667 -73.6667 201° Southwest 264 304 4,000  Level New York TRACON
Fri 03:18:02 PM 40.8000 -73.7167 210° Southwest 258 297 4,000  Level New York TRACON
Fri 03:19:02 PM 40.8000 -73.8000 270° West 255 293 4,000  Level New York TRACON

Login

Don't have an account? Register now (free) for customized features, flight alerts, and more!